DLH4NF EDDB-EDDM
Flight info
| Callsign | DLH4NF |
|---|---|
| Flight time | 0h 52m |
| Altitude | 28000 |
| Route | LUROS4N LUROS Y211 BEBKU Z36 MAREM DCT VESUB T106 TUSTO T108 LANDU LANDU2A |
| Aircraft | A321/M-SDE3FGHIRWY/LB1 |
Departure
| Time | 2026-05-04 13:14 |
|---|---|
| Airport | Berlin Brandenburg Airport (EDDB) |
Arrival
| Time | 2026-05-04 14:06 |
|---|---|
| Airport | Munich Airport (EDDM) |
| Time | Latitude | Longitude | Altitude | Speed | Heading |
|---|---|---|---|---|---|
| 2026-05-04 12:30 | 52.36387 | 13.50589 | 157 ft | 0 kts | 69° |
| 2026-05-04 12:47 | 52.36387 | 13.50588 | 155 ft | 0 kts | 69° |
| 2026-05-04 13:05 | 52.36385 | 13.50582 | 155 ft | 3 kts | 69° |
| 2026-05-04 13:05 | 52.36376 | 13.50541 | 155 ft | 4 kts | 69° |
| 2026-05-04 13:06 | 52.36368 | 13.50507 | 155 ft | 4 kts | 80° |
| 2026-05-04 13:06 | 52.36370 | 13.50468 | 155 ft | 4 kts | 123° |
| 2026-05-04 13:06 | 52.36388 | 13.50437 | 155 ft | 4 kts | 152° |
| 2026-05-04 13:06 | 52.36397 | 13.50430 | 155 ft | 0 kts | 159° |
| 2026-05-04 13:09 | 52.36396 | 13.50431 | 155 ft | 1 kts | 159° |
| 2026-05-04 13:09 | 52.36374 | 13.50445 | 155 ft | 6 kts | 159° |
| 2026-05-04 13:10 | 52.36331 | 13.50472 | 155 ft | 9 kts | 159° |
| 2026-05-04 13:10 | 52.36253 | 13.50522 | 155 ft | 14 kts | 159° |
| 2026-05-04 13:10 | 52.36194 | 13.50559 | 155 ft | 13 kts | 159° |
| 2026-05-04 13:10 | 52.36110 | 13.50613 | 155 ft | 13 kts | 159° |
| 2026-05-04 13:11 | 52.36000 | 13.50683 | 155 ft | 11 kts | 159° |
| 2026-05-04 13:11 | 52.35921 | 13.50733 | 155 ft | 13 kts | 159° |
| 2026-05-04 13:11 | 52.35852 | 13.50776 | 155 ft | 8 kts | 159° |
| 2026-05-04 13:11 | 52.35796 | 13.50810 | 155 ft | 9 kts | 159° |
| 2026-05-04 13:12 | 52.35753 | 13.50837 | 155 ft | 9 kts | 159° |
| 2026-05-04 13:12 | 52.35690 | 13.50830 | 155 ft | 10 kts | 215° |
| 2026-05-04 13:12 | 52.35618 | 13.50740 | 155 ft | 15 kts | 218° |
| 2026-05-04 13:12 | 52.35531 | 13.50624 | 154 ft | 17 kts | 219° |
| 2026-05-04 13:13 | 52.35440 | 13.50503 | 154 ft | 13 kts | 219° |
| 2026-05-04 13:13 | 52.35391 | 13.50413 | 154 ft | 12 kts | 246° |
| 2026-05-04 13:13 | 52.35306 | 13.50059 | 155 ft | 69 kts | 249° |
| 2026-05-04 13:13 | 52.35046 | 13.48960 | 155 ft | 135 kts | 249° |
| 2026-05-04 13:14 | 52.34685 | 13.47363 | 625 ft | 149 kts | 251° |
| 2026-05-04 13:14 | 52.34304 | 13.45745 | 1284 ft | 157 kts | 248° |
| 2026-05-04 13:14 | 52.33683 | 13.44197 | 1742 ft | 174 kts | 230° |
| 2026-05-04 13:14 | 52.32810 | 13.42650 | 2049 ft | 196 kts | 229° |
| 2026-05-04 13:15 | 52.31841 | 13.40905 | 2347 ft | 218 kts | 228° |
| 2026-05-04 13:15 | 52.30482 | 13.39540 | 2585 ft | 247 kts | 195° |
| 2026-05-04 13:15 | 52.28713 | 13.39492 | 3147 ft | 261 kts | 177° |
| 2026-05-04 13:15 | 52.26890 | 13.39768 | 3926 ft | 265 kts | 177° |
| 2026-05-04 13:16 | 52.25046 | 13.40066 | 4766 ft | 268 kts | 177° |
| 2026-05-04 13:16 | 52.23182 | 13.40369 | 5558 ft | 270 kts | 177° |
| 2026-05-04 13:16 | 52.21302 | 13.40671 | 6349 ft | 273 kts | 177° |
| 2026-05-04 13:16 | 52.19401 | 13.40969 | 7097 ft | 275 kts | 177° |
| 2026-05-04 13:17 | 52.17486 | 13.41265 | 7864 ft | 277 kts | 178° |
| 2026-05-04 13:17 | 52.15561 | 13.41558 | 8645 ft | 279 kts | 178° |
| 2026-05-04 13:17 | 52.13621 | 13.41852 | 9417 ft | 281 kts | 178° |
| 2026-05-04 13:17 | 52.11662 | 13.42151 | 10131 ft | 286 kts | 178° |
| 2026-05-04 13:18 | 52.09632 | 13.42453 | 10317 ft | 308 kts | 178° |
| 2026-05-04 13:18 | 52.07429 | 13.42775 | 10568 ft | 325 kts | 178° |
| 2026-05-04 13:18 | 52.05155 | 13.43113 | 11131 ft | 330 kts | 178° |
| 2026-05-04 13:18 | 52.02854 | 13.43463 | 11776 ft | 334 kts | 178° |
| 2026-05-04 13:19 | 52.00532 | 13.43825 | 12453 ft | 336 kts | 177° |
| 2026-05-04 13:19 | 51.98192 | 13.44191 | 13118 ft | 339 kts | 178° |
| 2026-05-04 13:19 | 51.95842 | 13.44552 | 13782 ft | 341 kts | 178° |
| 2026-05-04 13:19 | 51.93469 | 13.44914 | 14362 ft | 344 kts | 178° |
| 2026-05-04 13:20 | 51.91072 | 13.45274 | 14922 ft | 348 kts | 178° |
| 2026-05-04 13:20 | 51.88652 | 13.45637 | 15472 ft | 351 kts | 178° |
| 2026-05-04 13:20 | 51.86206 | 13.46004 | 16031 ft | 355 kts | 178° |
| 2026-05-04 13:20 | 51.83738 | 13.46374 | 16594 ft | 358 kts | 178° |
| 2026-05-04 13:21 | 51.81245 | 13.46749 | 17143 ft | 362 kts | 178° |
| 2026-05-04 13:21 | 51.78727 | 13.47131 | 17671 ft | 365 kts | 178° |
| 2026-05-04 13:21 | 51.76186 | 13.47517 | 18202 ft | 368 kts | 178° |
| 2026-05-04 13:21 | 51.73623 | 13.47904 | 18656 ft | 371 kts | 178° |
| 2026-05-04 13:22 | 51.71042 | 13.48296 | 19143 ft | 374 kts | 178° |
| 2026-05-04 13:22 | 51.68443 | 13.48687 | 19634 ft | 376 kts | 178° |
| 2026-05-04 13:22 | 51.65833 | 13.49074 | 20097 ft | 379 kts | 178° |
| 2026-05-04 13:22 | 51.63199 | 13.49466 | 20582 ft | 381 kts | 178° |
| 2026-05-04 13:23 | 51.60554 | 13.49863 | 21042 ft | 383 kts | 178° |
| 2026-05-04 13:23 | 51.57888 | 13.50263 | 21493 ft | 386 kts | 178° |
| 2026-05-04 13:23 | 51.55241 | 13.50656 | 21938 ft | 388 kts | 178° |
| 2026-05-04 13:23 | 51.52542 | 13.51056 | 22396 ft | 391 kts | 178° |
| 2026-05-04 13:24 | 51.49826 | 13.51458 | 22804 ft | 393 kts | 178° |
| 2026-05-04 13:24 | 51.47094 | 13.51864 | 23236 ft | 396 kts | 178° |
| 2026-05-04 13:24 | 51.44343 | 13.52270 | 23635 ft | 398 kts | 178° |
| 2026-05-04 13:25 | 51.38796 | 13.53084 | 24367 ft | 402 kts | 178° |
| 2026-05-04 13:25 | 51.36004 | 13.53495 | 24760 ft | 404 kts | 178° |
| 2026-05-04 13:25 | 51.33205 | 13.53906 | 25121 ft | 406 kts | 178° |
| 2026-05-04 13:25 | 51.30385 | 13.54319 | 25503 ft | 408 kts | 179° |
| 2026-05-04 13:26 | 51.27550 | 13.54735 | 25851 ft | 410 kts | 179° |
| 2026-05-04 13:26 | 51.24699 | 13.55161 | 26191 ft | 412 kts | 178° |
| 2026-05-04 13:26 | 51.21833 | 13.55586 | 26526 ft | 415 kts | 178° |
| 2026-05-04 13:26 | 51.18951 | 13.56012 | 26882 ft | 417 kts | 178° |
| 2026-05-04 13:27 | 51.16055 | 13.56437 | 27223 ft | 419 kts | 179° |
| 2026-05-04 13:27 | 51.13143 | 13.56859 | 27563 ft | 421 kts | 179° |
| 2026-05-04 13:27 | 51.10216 | 13.57284 | 27886 ft | 424 kts | 179° |
| 2026-05-04 13:27 | 51.07336 | 13.57706 | 27977 ft | 416 kts | 179° |
| 2026-05-04 13:28 | 51.04502 | 13.58132 | 27978 ft | 404 kts | 179° |
| 2026-05-04 13:28 | 51.01714 | 13.58547 | 27980 ft | 401 kts | 179° |
| 2026-05-04 13:28 | 50.98942 | 13.58948 | 27974 ft | 399 kts | 179° |
| 2026-05-04 13:28 | 50.96176 | 13.59344 | 27983 ft | 399 kts | 179° |
| 2026-05-04 13:29 | 50.93412 | 13.59736 | 27970 ft | 399 kts | 179° |
| 2026-05-04 13:29 | 50.90649 | 13.60130 | 27980 ft | 399 kts | 179° |
| 2026-05-04 13:29 | 50.87885 | 13.60524 | 27985 ft | 399 kts | 179° |
| 2026-05-04 13:29 | 50.85122 | 13.60925 | 27984 ft | 399 kts | 179° |
| 2026-05-04 13:30 | 50.82358 | 13.61326 | 27983 ft | 399 kts | 179° |
| 2026-05-04 13:30 | 50.79594 | 13.61724 | 27983 ft | 399 kts | 179° |
| 2026-05-04 13:30 | 50.76836 | 13.62121 | 27963 ft | 399 kts | 179° |
| 2026-05-04 13:30 | 50.74072 | 13.62499 | 27970 ft | 398 kts | 181° |
| 2026-05-04 13:31 | 50.71327 | 13.62347 | 27968 ft | 393 kts | 191° |
| 2026-05-04 13:31 | 50.68703 | 13.61466 | 27968 ft | 389 kts | 200° |
| 2026-05-04 13:31 | 50.66128 | 13.60168 | 27972 ft | 388 kts | 201° |
| 2026-05-04 13:31 | 50.63555 | 13.58874 | 27973 ft | 389 kts | 200° |
| 2026-05-04 13:32 | 50.60976 | 13.57586 | 27967 ft | 389 kts | 200° |
| 2026-05-04 13:32 | 50.58395 | 13.56299 | 27968 ft | 389 kts | 200° |
| 2026-05-04 13:32 | 50.55808 | 13.55015 | 27978 ft | 389 kts | 200° |
| 2026-05-04 13:32 | 50.53225 | 13.53734 | 27971 ft | 389 kts | 200° |
| 2026-05-04 13:33 | 50.50635 | 13.52451 | 27968 ft | 389 kts | 200° |
| 2026-05-04 13:33 | 50.48051 | 13.51171 | 27975 ft | 389 kts | 200° |
| 2026-05-04 13:33 | 50.45501 | 13.49910 | 27972 ft | 389 kts | 200° |
| 2026-05-04 13:33 | 50.42911 | 13.48629 | 27975 ft | 389 kts | 200° |
| 2026-05-04 13:34 | 50.40314 | 13.47348 | 27976 ft | 389 kts | 200° |
| 2026-05-04 13:34 | 50.37756 | 13.46085 | 27978 ft | 390 kts | 200° |
| 2026-05-04 13:34 | 50.35169 | 13.44805 | 27981 ft | 390 kts | 200° |
| 2026-05-04 13:34 | 50.32576 | 13.43525 | 27980 ft | 390 kts | 200° |
| 2026-05-04 13:35 | 50.29990 | 13.42252 | 27978 ft | 390 kts | 200° |
| 2026-05-04 13:35 | 50.24841 | 13.39717 | 27986 ft | 390 kts | 200° |
| 2026-05-04 13:35 | 50.22247 | 13.38444 | 27986 ft | 390 kts | 200° |
| 2026-05-04 13:36 | 50.19654 | 13.37173 | 27986 ft | 390 kts | 200° |
| 2026-05-04 13:36 | 50.17065 | 13.35907 | 27987 ft | 390 kts | 200° |
| 2026-05-04 13:36 | 50.14475 | 13.34643 | 27987 ft | 390 kts | 200° |
| 2026-05-04 13:36 | 50.11910 | 13.33393 | 27988 ft | 390 kts | 200° |
| 2026-05-04 13:37 | 50.09329 | 13.32133 | 27979 ft | 389 kts | 200° |
| 2026-05-04 13:37 | 50.06741 | 13.30872 | 27980 ft | 390 kts | 200° |
| 2026-05-04 13:37 | 50.04147 | 13.29608 | 27982 ft | 390 kts | 200° |
| 2026-05-04 13:37 | 50.02424 | 13.28770 | 27982 ft | 390 kts | 200° |
| 2026-05-04 13:38 | 49.98960 | 13.27087 | 27984 ft | 390 kts | 200° |
| 2026-05-04 13:38 | 49.96404 | 13.25850 | 27986 ft | 390 kts | 200° |
| 2026-05-04 13:38 | 49.93801 | 13.24589 | 27987 ft | 390 kts | 200° |
| 2026-05-04 13:38 | 49.91210 | 13.23331 | 27997 ft | 390 kts | 200° |
| 2026-05-04 13:39 | 49.88625 | 13.22079 | 27987 ft | 390 kts | 200° |
| 2026-05-04 13:39 | 49.86032 | 13.20830 | 27988 ft | 390 kts | 200° |
| 2026-05-04 13:39 | 49.83437 | 13.19582 | 27990 ft | 390 kts | 200° |
| 2026-05-04 13:39 | 49.80844 | 13.18336 | 27992 ft | 391 kts | 200° |
| 2026-05-04 13:40 | 49.78242 | 13.17087 | 27994 ft | 391 kts | 200° |
| 2026-05-04 13:40 | 49.75673 | 13.15851 | 27997 ft | 391 kts | 200° |
| 2026-05-04 13:40 | 49.73075 | 13.14603 | 27999 ft | 391 kts | 200° |
| 2026-05-04 13:41 | 49.67866 | 13.12102 | 27982 ft | 391 kts | 200° |
| 2026-05-04 13:41 | 49.65268 | 13.10856 | 27978 ft | 391 kts | 200° |
| 2026-05-04 13:41 | 49.62692 | 13.09623 | 27980 ft | 391 kts | 200° |
| 2026-05-04 13:42 | 49.57490 | 13.07139 | 27984 ft | 391 kts | 200° |
| 2026-05-04 13:42 | 49.54882 | 13.05896 | 27987 ft | 391 kts | 200° |
| 2026-05-04 13:42 | 49.52275 | 13.04656 | 27989 ft | 391 kts | 200° |
| 2026-05-04 13:42 | 49.49702 | 13.03437 | 27988 ft | 391 kts | 199° |
| 2026-05-04 13:43 | 49.47098 | 13.02208 | 27986 ft | 391 kts | 199° |
| 2026-05-04 13:43 | 49.44484 | 13.00971 | 27981 ft | 391 kts | 200° |
| 2026-05-04 13:43 | 49.41897 | 12.99673 | 27981 ft | 390 kts | 204° |
| 2026-05-04 13:43 | 49.39439 | 12.97926 | 27982 ft | 389 kts | 208° |
| 2026-05-04 13:44 | 49.37030 | 12.96155 | 27983 ft | 389 kts | 207° |
| 2026-05-04 13:44 | 49.34579 | 12.94370 | 27985 ft | 389 kts | 207° |
| 2026-05-04 13:44 | 49.32127 | 12.92596 | 27926 ft | 386 kts | 207° |
| 2026-05-04 13:44 | 49.29715 | 12.90853 | 27649 ft | 377 kts | 207° |
| 2026-05-04 13:45 | 49.27398 | 12.89182 | 27384 ft | 371 kts | 207° |
| 2026-05-04 13:45 | 49.25070 | 12.87500 | 27116 ft | 368 kts | 207° |
| 2026-05-04 13:45 | 49.22763 | 12.85825 | 26855 ft | 366 kts | 207° |
| 2026-05-04 13:45 | 49.20458 | 12.84145 | 26599 ft | 365 kts | 207° |
| 2026-05-04 13:46 | 49.18173 | 12.82477 | 26339 ft | 363 kts | 207° |
| 2026-05-04 13:46 | 49.15915 | 12.80834 | 26097 ft | 362 kts | 207° |
| 2026-05-04 13:46 | 49.13640 | 12.79185 | 25853 ft | 360 kts | 207° |
| 2026-05-04 13:46 | 49.11376 | 12.77549 | 25602 ft | 359 kts | 207° |
| 2026-05-04 13:47 | 49.09121 | 12.75924 | 25362 ft | 354 kts | 207° |
| 2026-05-04 13:47 | 49.06929 | 12.74346 | 25002 ft | 349 kts | 206° |
| 2026-05-04 13:47 | 49.04740 | 12.72769 | 24604 ft | 345 kts | 206° |
| 2026-05-04 13:47 | 49.02578 | 12.71214 | 24202 ft | 342 kts | 206° |
| 2026-05-04 13:48 | 49.00433 | 12.69668 | 23808 ft | 339 kts | 206° |
| 2026-05-04 13:48 | 48.98329 | 12.68153 | 23382 ft | 336 kts | 206° |
| 2026-05-04 13:48 | 48.96226 | 12.66641 | 22950 ft | 332 kts | 206° |
| 2026-05-04 13:48 | 48.94144 | 12.65148 | 22551 ft | 328 kts | 206° |
| 2026-05-04 13:49 | 48.92109 | 12.63597 | 22071 ft | 325 kts | 213° |
| 2026-05-04 13:49 | 48.90436 | 12.61269 | 21340 ft | 330 kts | 232° |
| 2026-05-04 13:49 | 48.89067 | 12.58507 | 20792 ft | 331 kts | 233° |
| 2026-05-04 13:49 | 48.87683 | 12.55702 | 20369 ft | 330 kts | 233° |
| 2026-05-04 13:50 | 48.86313 | 12.52923 | 19966 ft | 328 kts | 233° |
| 2026-05-04 13:50 | 48.84947 | 12.50159 | 19535 ft | 326 kts | 233° |
| 2026-05-04 13:50 | 48.83604 | 12.47450 | 19096 ft | 323 kts | 232° |
| 2026-05-04 13:50 | 48.82254 | 12.44733 | 18659 ft | 321 kts | 232° |
| 2026-05-04 13:51 | 48.80913 | 12.42036 | 18227 ft | 319 kts | 232° |
| 2026-05-04 13:51 | 48.79576 | 12.39354 | 17739 ft | 317 kts | 232° |
| 2026-05-04 13:51 | 48.78252 | 12.36700 | 17275 ft | 314 kts | 232° |
| 2026-05-04 13:51 | 48.76939 | 12.34061 | 16797 ft | 311 kts | 232° |
| 2026-05-04 13:52 | 48.74357 | 12.28879 | 15902 ft | 307 kts | 232° |
| 2026-05-04 13:52 | 48.73074 | 12.26312 | 15460 ft | 304 kts | 231° |
| 2026-05-04 13:52 | 48.71795 | 12.23760 | 15038 ft | 302 kts | 231° |
| 2026-05-04 13:53 | 48.70527 | 12.21235 | 14622 ft | 300 kts | 231° |
| 2026-05-04 13:53 | 48.69282 | 12.18753 | 14212 ft | 298 kts | 231° |
| 2026-05-04 13:53 | 48.68035 | 12.16266 | 13793 ft | 296 kts | 231° |
| 2026-05-04 13:54 | 48.65556 | 12.11333 | 12892 ft | 292 kts | 231° |
| 2026-05-04 13:54 | 48.64337 | 12.08915 | 12421 ft | 292 kts | 231° |
| 2026-05-04 13:54 | 48.61881 | 12.04038 | 11542 ft | 289 kts | 231° |
| 2026-05-04 13:55 | 48.60679 | 12.01654 | 11117 ft | 287 kts | 231° |
| 2026-05-04 13:55 | 48.58761 | 11.96391 | 10399 ft | 287 kts | 244° |
| 2026-05-04 13:55 | 48.57961 | 11.93642 | 10061 ft | 283 kts | 244° |
| 2026-05-04 13:56 | 48.57173 | 11.90931 | 9718 ft | 280 kts | 244° |
| 2026-05-04 13:56 | 48.56392 | 11.88257 | 9350 ft | 277 kts | 244° |
| 2026-05-04 13:56 | 48.54840 | 11.82988 | 8663 ft | 275 kts | 245° |
| 2026-05-04 13:57 | 48.54054 | 11.80341 | 8414 ft | 276 kts | 244° |
| 2026-05-04 13:57 | 48.53263 | 11.77696 | 8160 ft | 276 kts | 244° |
| 2026-05-04 13:58 | 48.50897 | 11.69816 | 7403 ft | 275 kts | 244° |
| 2026-05-04 13:58 | 48.49327 | 11.64600 | 6919 ft | 268 kts | 244° |
| 2026-05-04 13:58 | 48.48494 | 11.62149 | 6758 ft | 257 kts | 237° |
| 2026-05-04 13:59 | 48.47525 | 11.59935 | 6613 ft | 250 kts | 235° |
| 2026-05-04 13:59 | 48.46542 | 11.57771 | 6469 ft | 249 kts | 234° |
| 2026-05-04 13:59 | 48.44580 | 11.53487 | 6171 ft | 250 kts | 234° |
| 2026-05-04 14:00 | 48.43593 | 11.51334 | 6022 ft | 249 kts | 234° |
| 2026-05-04 14:00 | 48.41234 | 11.47827 | 5583 ft | 236 kts | 196° |
| 2026-05-04 14:00 | 48.39637 | 11.47509 | 5229 ft | 232 kts | 178° |
| 2026-05-04 14:01 | 48.38053 | 11.47959 | 4923 ft | 227 kts | 159° |
| 2026-05-04 14:01 | 48.36705 | 11.49064 | 4834 ft | 218 kts | 141° |
| 2026-05-04 14:01 | 48.34991 | 11.52440 | 4540 ft | 193 kts | 110° |
| 2026-05-04 14:02 | 48.34667 | 11.54343 | 4332 ft | 184 kts | 95° |
| 2026-05-04 14:02 | 48.34664 | 11.56214 | 4113 ft | 180 kts | 82° |
| 2026-05-04 14:02 | 48.34812 | 11.58067 | 3881 ft | 178 kts | 82° |
| 2026-05-04 14:02 | 48.34958 | 11.59917 | 3651 ft | 177 kts | 82° |
| 2026-05-04 14:03 | 48.35100 | 11.61730 | 3428 ft | 171 kts | 82° |
| 2026-05-04 14:03 | 48.35237 | 11.63463 | 3232 ft | 163 kts | 82° |
| 2026-05-04 14:03 | 48.35365 | 11.65103 | 3008 ft | 154 kts | 82° |
| 2026-05-04 14:03 | 48.35488 | 11.66664 | 2803 ft | 148 kts | 82° |
| 2026-05-04 14:04 | 48.35726 | 11.69699 | 2428 ft | 144 kts | 82° |
| 2026-05-04 14:04 | 48.35843 | 11.71182 | 2201 ft | 142 kts | 81° |
| 2026-05-04 14:04 | 48.35952 | 11.72643 | 2019 ft | 143 kts | 82° |
| 2026-05-04 14:05 | 48.36183 | 11.75596 | 1686 ft | 140 kts | 83° |
| 2026-05-04 14:05 | 48.36294 | 11.77053 | 1503 ft | 140 kts | 82° |
| 2026-05-04 14:05 | 48.36402 | 11.78367 | 1485 ft | 106 kts | 83° |
| 2026-05-04 14:06 | 48.36466 | 11.79212 | 1475 ft | 56 kts | 83° |
| 2026-05-04 14:06 | 48.36501 | 11.79669 | 1481 ft | 36 kts | 83° |
| 2026-05-04 14:06 | 48.36494 | 11.80028 | 1475 ft | 33 kts | 108° |
| 2026-05-04 14:06 | 48.36414 | 11.80312 | 1478 ft | 18 kts | 111° |
| 2026-05-04 14:07 | 48.36374 | 11.80465 | 1481 ft | 12 kts | 111° |
| 2026-05-04 14:07 | 48.36313 | 11.80518 | 1475 ft | 12 kts | 206° |
| 2026-05-04 14:07 | 48.36285 | 11.80397 | 1485 ft | 13 kts | 263° |
| 2026-05-04 14:07 | 48.36273 | 11.80249 | 1485 ft | 15 kts | 263° |
| 2026-05-04 14:08 | 48.36261 | 11.80085 | 1485 ft | 17 kts | 263° |
| 2026-05-04 14:08 | 48.36247 | 11.79905 | 1481 ft | 18 kts | 263° |
| 2026-05-04 14:08 | 48.36232 | 11.79710 | 1481 ft | 19 kts | 263° |
| 2026-05-04 14:08 | 48.36217 | 11.79516 | 1483 ft | 13 kts | 263° |
| 2026-05-04 14:09 | 48.36170 | 11.79307 | 1475 ft | 11 kts | 195° |
| 2026-05-04 14:09 | 48.36092 | 11.79317 | 1485 ft | 12 kts | 173° |
| 2026-05-04 14:10 | 48.35905 | 11.79370 | 1475 ft | 15 kts | 156° |
| 2026-05-04 14:10 | 48.35798 | 11.79400 | 1485 ft | 17 kts | 165° |
| 2026-05-04 14:10 | 48.35701 | 11.79503 | 1480 ft | 18 kts | 140° |
| 2026-05-04 14:10 | 48.35583 | 11.79567 | 1485 ft | 19 kts | 174° |
| 2026-05-04 14:11 | 48.35449 | 11.79592 | 1475 ft | 20 kts | 173° |
| 2026-05-04 14:11 | 48.35279 | 11.79632 | 1473 ft | 8 kts | 137° |
| 2026-05-04 14:11 | 48.35277 | 11.79689 | 1478 ft | 9 kts | 84° |
| 2026-05-04 14:12 | 48.35283 | 11.79776 | 1485 ft | 0 kts | 84° |